Time,TemperatureF,DewpointF,PressureIn,WindDirection,WindDirectionDegrees,WindSpeedMPH,WindSpeedGustMPH,Humidity,HourlyPrecipIn,Conditions,Clouds,dailyrainin,SoftwareType,DateUTC
2013-07-29 00:00:00,66.6,53.2,29.91,SSW,212,0.0,0.0,62,0.00,,,0.00,Wunderground v.1.15,2013-07-29 05:00:00,
2013-07-29 00:05:00,66.6,53.2,29.91,SSW,212,0.0,0.0,62,0.00,,,0.00,Wunderground v.1.15,2013-07-29 05:05:00,
2013-07-29 00:15:00,66.9,53.5,29.91,SSW,212,0.0,0.0,62,0.00,,,0.00,Wunderground v.1.15,2013-07-29 05:15:00,
2013-07-29 00:25:00,66.4,53.4,29.91,SSW,212,0.0,0.0,63,0.00,,,0.00,Wunderground v.1.15,2013-07-29 05:25:00,
2013-07-29 00:35:00,66.4,53.4,29.92,SSW,212,0.0,0.0,63,0.00,,,0.00,Wunderground v.1.15,2013-07-29 05:35:00,
2013-07-29 00:45:00,66.3,53.3,29.91,SSW,206,0.0,1.0,63,0.00,,,0.00,Wunderground v.1.15,2013-07-29 05:45:00,
2013-07-29 00:50:00,66.3,53.8,29.91,SSW,198,1.0,2.0,64,0.00,,,0.00,Wunderground v.1.15,2013-07-29 05:50:00,
2013-07-29 01:00:00,66.1,53.6,29.92,SSW,200,3.0,3.0,64,0.00,,,0.00,Wunderground v.1.15,2013-07-29 06:00:00,
2013-07-29 01:10:00,66.0,53.9,29.92,SSW,200,1.0,1.0,65,0.00,,,0.00,Wunderground v.1.15,2013-07-29 06:10:00,
2013-07-29 01:20:00,66.0,53.9,29.91,SSW,200,0.0,1.0,65,0.00,,,0.00,Wunderground v.1.15,2013-07-29 06:20:00,
2013-07-29 01:25:00,66.0,53.9,29.91,SSW,193,0.0,1.0,65,0.00,,,0.00,Wunderground v.1.15,2013-07-29 06:25:00,
2013-07-29 01:35:00,66.0,53.9,29.91,SSW,193,1.0,1.0,65,0.00,,,0.00,Wunderground v.1.15,2013-07-29 06:35:00,
2013-07-29 01:45:00,66.0,53.9,29.91,SSW,193,0.0,1.0,65,0.00,,,0.00,Wunderground v.1.15,2013-07-29 06:45:00,
2013-07-29 01:55:00,66.0,54.3,29.91,SSW,193,0.0,1.0,66,0.00,,,0.00,Wunderground v.1.15,2013-07-29 06:55:00,
2013-07-29 02:00:00,66.0,54.3,29.90,SSW,192,0.0,1.0,66,0.00,,,0.00,Wunderground v.1.15,2013-07-29 07:00:00,
2013-07-29 02:10:00,66.0,54.3,29.90,SSW,192,1.0,1.0,66,0.00,,,0.00,Wunderground v.1.15,2013-07-29 07:10:00,
2013-07-29 02:20:00,66.0,54.3,29.90,SSW,192,0.0,0.0,66,0.00,,,0.00,Wunderground v.1.15,2013-07-29 07:20:00,
2013-07-29 02:30:00,66.0,54.3,29.90,SSW,192,0.0,0.0,66,0.00,,,0.00,Wunderground v.1.15,2013-07-29 07:30:00,
2013-07-29 02:40:00,66.0,54.3,29.90,SSW,192,0.0,0.0,66,0.00,,,0.00,Wunderground v.1.15,2013-07-29 07:40:00,
2013-07-29 02:45:00,66.0,54.3,29.90,SSW,192,0.0,0.0,66,0.00,,,0.00,Wunderground v.1.15,2013-07-29 07:45:00,
2013-07-29 02:55:00,66.0,54.7,29.90,SSW,192,0.0,0.0,67,0.00,,,0.00,Wunderground v.1.15,2013-07-29 07:55:00,
2013-07-29 03:05:00,65.6,54.3,29.90,SSW,192,0.0,0.0,67,0.00,,,0.00,Wunderground v.1.15,2013-07-29 08:05:00,
2013-07-29 03:15:00,65.6,54.3,29.89,South,169,1.0,4.0,67,0.00,,,0.00,Wunderground v.1.15,2013-07-29 08:15:00,
2013-07-29 03:25:00,65.5,54.2,29.89,South,169,0.0,0.0,67,0.00,,,0.00,Wunderground v.1.15,2013-07-29 08:25:00,
2013-07-29 03:30:00,65.5,54.2,29.90,South,169,0.0,0.0,67,0.00,,,0.00,Wunderground v.1.15,2013-07-29 08:30:00,
2013-07-29 03:40:00,65.2,54.4,29.90,South,169,0.0,1.0,68,0.00,,,0.00,Wunderground v.1.15,2013-07-29 08:40:00,
2013-07-29 03:45:00,65.2,54.4,29.90,South,169,0.0,1.0,68,0.00,,,0.00,Wunderground v.1.15,2013-07-29 08:45:00,
2013-07-29 03:55:00,65.0,54.2,29.90,ESE,104,0.0,1.0,68,0.00,,,0.00,Wunderground v.1.15,2013-07-29 08:55:00,
2013-07-29 04:05:00,65.0,54.2,29.90,East,100,0.0,1.0,68,0.00,,,0.00,Wunderground v.1.15,2013-07-29 09:05:00,
2013-07-29 04:10:00,64.8,54.0,29.90,East,99,0.0,0.0,68,0.00,,,0.00,Wunderground v.1.15,2013-07-29 09:10:00,
2013-07-29 04:20:00,64.7,54.3,29.90,East,99,1.0,1.0,69,0.00,,,0.00,Wunderground v.1.15,2013-07-29 09:20:00,
2013-07-29 04:30:00,64.7,54.3,29.90,East,99,0.0,0.0,69,0.00,,,0.00,Wunderground v.1.15,2013-07-29 09:30:00,
2013-07-29 04:35:00,64.7,54.3,29.90,East,99,0.0,0.0,69,0.00,,,0.00,Wunderground v.1.15,2013-07-29 09:35:00,
2013-07-29 04:45:00,64.8,54.4,29.90,East,99,0.0,0.0,69,0.00,,,0.00,Wunderground v.1.15,2013-07-29 09:45:00,
2013-07-29 04:55:00,64.8,54.4,29.90,East,99,0.0,1.0,69,0.00,,,0.00,Wunderground v.1.15,2013-07-29 09:55:00,
2013-07-29 05:00:00,65.0,54.6,29.90,East,99,0.0,0.0,69,0.00,,,0.00,Wunderground v.1.15,2013-07-29 10:00:00,
2013-07-29 05:10:00,65.0,55.0,29.90,SE,141,1.0,4.0,70,0.00,,,0.00,Wunderground v.1.15,2013-07-29 10:10:00,
2013-07-29 05:25:00,65.0,55.0,29.90,ESE,116,1.0,2.0,70,0.00,,,0.00,Wunderground v.1.15,2013-07-29 10:25:00,
2013-07-29 05:35:00,64.8,54.8,29.91,SE,128,1.0,1.0,70,0.00,,,0.00,Wunderground v.1.15,2013-07-29 10:35:00,
2013-07-29 05:45:00,64.7,54.7,29.91,SE,127,1.0,1.0,70,0.00,,,0.01,Wunderground v.1.15,2013-07-29 10:45:00,
2013-07-29 05:50:00,64.3,54.7,29.91,SE,130,1.0,2.0,71,0.00,,,0.01,Wunderground v.1.15,2013-07-29 10:50:00,
2013-07-29 06:00:00,64.2,54.6,29.91,SE,131,1.0,1.0,71,0.07,,,0.02,Wunderground v.1.15,2013-07-29 11:00:00,
2013-07-29 06:05:00,64.0,54.4,29.91,SE,131,1.0,1.0,71,0.04,,,0.03,Wunderground v.1.15,2013-07-29 11:05:00,
2013-07-29 06:15:00,63.7,54.5,29.92,SE,131,0.0,0.0,72,0.06,,,0.03,Wunderground v.1.15,2013-07-29 11:15:00,
2013-07-29 06:20:00,63.4,54.2,29.92,SSE,151,1.0,2.0,72,0.06,,,0.04,Wunderground v.1.15,2013-07-29 11:20:00,
2013-07-29 06:30:00,63.1,53.9,29.93,SE,136,2.0,2.0,72,0.08,,,0.06,Wunderground v.1.15,2013-07-29 11:30:00,
2013-07-29 06:35:00,62.9,53.7,29.93,SSE,147,2.0,2.0,72,0.08,,,0.06,Wunderground v.1.15,2013-07-29 11:35:00,
2013-07-29 06:45:00,62.6,53.8,29.92,SE,145,1.0,2.0,73,0.06,,,0.07,Wunderground v.1.15,2013-07-29 11:45:00,
2013-07-29 06:55:00,62.4,53.6,29.92,SSE,151,3.0,6.0,73,0.05,,,0.08,Wunderground v.1.15,2013-07-29 11:55:00,
2013-07-29 07:00:00,62.4,54.0,29.93,SSE,151,3.0,3.0,74,0.07,,,0.09,Wunderground v.1.15,2013-07-29 12:00:00,
2013-07-29 07:10:00,62.3,53.9,29.93,SSE,155,3.0,3.0,74,0.10,,,0.11,Wunderground v.1.15,2013-07-29 12:10:00,
2013-07-29 07:15:00,62.1,53.7,29.92,SE,136,3.0,4.0,74,0.06,,,0.11,Wunderground v.1.15,2013-07-29 12:15:00,
2013-07-29 07:30:00,61.8,53.8,29.92,SE,145,2.0,2.0,75,0.07,,,0.13,Wunderground v.1.15,2013-07-29 12:30:00,
2013-07-29 07:35:00,61.6,53.6,29.92,ESE,113,2.0,4.0,75,0.07,,,0.13,Wunderground v.1.15,2013-07-29 12:35:00,
2013-07-29 07:45:00,61.5,53.5,29.92,SE,130,2.0,7.0,75,0.00,,,0.13,Wunderground v.1.15,2013-07-29 12:45:00,
2013-07-29 08:00:00,61.3,53.7,29.92,ESE,113,4.0,8.0,76,0.00,,,0.13,Wunderground v.1.15,2013-07-29 13:00:00,
2013-07-29 08:10:00,61.3,53.7,29.92,SSE,147,4.0,4.0,76,0.00,,,0.13,Wunderground v.1.15,2013-07-29 13:10:00,
2013-07-29 08:15:00,61.5,53.9,29.92,SE,124,4.0,4.0,76,0.00,,,0.13,Wunderground v.1.15,2013-07-29 13:15:00,
2013-07-29 08:25:00,61.8,54.5,29.92,ESE,109,3.0,4.0,77,0.00,,,0.13,Wunderground v.1.15,2013-07-29 13:25:00,
2013-07-29 08:30:00,62.0,54.7,29.92,SE,144,3.0,4.0,77,0.00,,,0.13,Wunderground v.1.15,2013-07-29 13:30:00,
2013-07-29 08:40:00,62.4,55.1,29.92,ESE,121,3.0,6.0,77,0.00,,,0.13,Wunderground v.1.15,2013-07-29 13:40:00,
2013-07-29 08:50:00,62.9,55.9,29.93,SE,136,3.0,3.0,78,0.00,,,0.13,Wunderground v.1.15,2013-07-29 13:50:00,
2013-07-29 09:10:00,63.4,56.4,29.93,ESE,114,4.0,4.0,78,0.00,,,0.13,Wunderground v.1.15,2013-07-29 14:10:00,
2013-07-29 09:15:00,63.5,56.5,29.93,SE,141,3.0,4.0,78,0.00,,,0.13,Wunderground v.1.15,2013-07-29 14:15:00,
2013-07-29 09:25:00,63.4,56.4,29.93,SSE,161,4.0,4.0,78,0.00,,,0.13,Wunderground v.1.15,2013-07-29 14:25:00,
2013-07-29 09:35:00,63.4,56.4,29.93,ESE,112,3.0,3.0,78,0.00,,,0.14,Wunderground v.1.15,2013-07-29 14:35:00,
2013-07-29 09:45:00,63.2,56.6,29.93,SSE,148,3.0,3.0,79,0.07,,,0.15,Wunderground v.1.15,2013-07-29 14:45:00,
2013-07-29 09:50:00,63.4,56.8,29.93,ESE,123,3.0,3.0,79,0.05,,,0.15,Wunderground v.1.15,2013-07-29 14:50:00,
2013-07-29 10:10:00,63.4,56.8,29.93,SE,136,2.0,2.0,79,0.00,,,0.16,Wunderground v.1.15,2013-07-29 15:10:00,
2013-07-29 10:20:00,63.5,56.9,29.93,ESE,107,2.0,2.0,79,0.00,,,0.17,Wunderground v.1.15,2013-07-29 15:20:00,
2013-07-29 10:25:00,63.5,56.9,29.93,ESE,106,1.0,2.0,79,0.00,,,0.17,Wunderground v.1.15,2013-07-29 15:25:00,
2013-07-29 10:35:00,63.7,57.4,29.93,SE,140,1.0,1.0,80,0.00,,,0.17,Wunderground v.1.15,2013-07-29 15:35:00,
2013-07-29 10:50:00,63.5,57.2,29.93,SE,126,3.0,3.0,80,0.00,,,0.18,Wunderground v.1.15,2013-07-29 15:50:00,
2013-07-29 10:55:00,63.4,57.1,29.93,SE,131,3.0,4.0,80,0.00,,,0.18,Wunderground v.1.15,2013-07-29 15:55:00,
2013-07-29 11:10:00,63.4,57.1,29.92,ESE,109,4.0,4.0,80,0.04,,,0.19,Wunderground v.1.15,2013-07-29 16:10:00,
2013-07-29 11:15:00,63.4,57.1,29.93,SE,126,3.0,4.0,80,0.27,,,0.21,Wunderground v.1.15,2013-07-29 16:15:00,
2013-07-29 11:25:00,63.5,57.6,29.93,East,96,3.0,4.0,81,0.10,,,0.22,Wunderground v.1.15,2013-07-29 16:25:00,
2013-07-29 11:30:00,63.4,57.5,29.92,ESE,109,3.0,6.0,81,0.06,,,0.23,Wunderground v.1.15,2013-07-29 16:30:00,
2013-07-29 11:40:00,63.4,57.5,29.92,ESE,112,3.0,4.0,81,0.09,,,0.24,Wunderground v.1.15,2013-07-29 16:40:00,
2013-07-29 11:50:00,63.4,57.5,29.92,East,95,2.0,2.0,81,0.08,,,0.25,Wunderground v.1.15,2013-07-29 16:50:00,
2013-07-29 12:00:00,63.5,57.6,29.93,ESE,109,1.0,1.0,81,0.41,,,0.27,Wunderground v.1.15,2013-07-29 17:00:00,
2013-07-29 12:05:00,63.5,57.9,29.93,East,86,2.0,2.0,82,0.28,,,0.30,Wunderground v.1.15,2013-07-29 17:05:00,
2013-07-29 12:15:00,63.5,57.9,29.92,East,100,3.0,3.0,82,0.43,,,0.37,Wunderground v.1.15,2013-07-29 17:15:00,
2013-07-29 12:30:00,63.4,57.8,29.92,SE,128,3.0,3.0,82,0.22,,,0.44,Wunderground v.1.15,2013-07-29 17:30:00,
2013-07-29 12:40:00,63.4,57.8,29.92,ESE,102,3.0,3.0,82,0.26,,,0.49,Wunderground v.1.15,2013-07-29 17:40:00,
2013-07-29 12:50:00,63.5,57.9,29.93,SE,136,2.0,2.0,82,0.12,,,0.51,Wunderground v.1.15,2013-07-29 17:50:00,
2013-07-29 13:00:00,63.5,58.2,29.91,East,97,4.0,4.0,83,0.47,,,0.56,Wunderground v.1.15,2013-07-29 18:00:00,
2013-07-29 13:05:00,63.5,58.2,29.91,East,80,4.0,4.0,83,0.31,,,0.60,Wunderground v.1.15,2013-07-29 18:05:00,
2013-07-29 13:20:00,63.5,58.2,29.88,NE,38,5.0,5.0,83,0.20,,,0.67,Wunderground v.1.15,2013-07-29 18:20:00,
2013-07-29 13:25:00,63.5,58.2,29.88,East,99,4.0,5.0,83,0.23,,,0.69,Wunderground v.1.15,2013-07-29 18:25:00,
2013-07-29 13:35:00,63.5,58.6,29.90,East,100,3.0,4.0,84,0.24,,,0.72,Wunderground v.1.15,2013-07-29 18:35:00,
2013-07-29 13:40:00,63.7,58.8,29.90,SE,138,2.0,4.0,84,0.24,,,0.74,Wunderground v.1.15,2013-07-29 18:40:00,
2013-07-29 13:55:00,63.7,58.8,29.89,East,97,3.0,3.0,84,1.17,,,0.94,Wunderground v.1.15,2013-07-29 18:55:00,
2013-07-29 14:00:00,63.7,58.8,29.89,East,92,3.0,3.0,84,2.36,,,1.06,Wunderground v.1.15,2013-07-29 19:00:00,
2013-07-29 14:10:00,63.7,58.8,29.89,ESE,121,3.0,4.0,84,1.97,,,1.22,Wunderground v.1.15,2013-07-29 19:10:00,
2013-07-29 14:20:00,63.7,58.8,29.88,East,83,4.0,4.0,84,1.66,,,1.42,Wunderground v.1.15,2013-07-29 19:20:00,
2013-07-29 14:30:00,63.9,59.3,29.91,ESE,119,3.0,3.0,85,2.42,,,1.67,Wunderground v.1.15,2013-07-29 19:30:00,
2013-07-29 14:40:00,63.9,59.3,29.91,ENE,71,2.0,2.0,85,0.89,,,1.94,Wunderground v.1.15,2013-07-29 19:40:00,
2013-07-29 14:50:00,64.0,59.4,29.90,East,79,1.0,1.0,85,0.21,,,2.00,Wunderground v.1.15,2013-07-29 19:50:00,
2013-07-29 14:55:00,64.0,59.4,29.90,ESE,102,1.0,1.0,85,0.19,,,2.02,Wunderground v.1.15,2013-07-29 19:55:00,
2013-07-29 15:00:00,64.0,59.4,29.90,ENE,64,1.0,1.0,85,0.11,,,2.03,Wunderground v.1.15,2013-07-29 20:00:00,
2013-07-29 15:10:00,64.2,59.6,29.90,East,97,0.0,2.0,85,0.06,,,2.03,Wunderground v.1.15,2013-07-29 20:10:00,
2013-07-29 15:20:00,64.3,60.0,29.90,ESE,112,1.0,1.0,86,0.05,,,2.04,Wunderground v.1.15,2013-07-29 20:20:00,
2013-07-29 15:30:00,64.5,60.2,29.90,East,86,1.0,1.0,86,0.00,,,2.04,Wunderground v.1.15,2013-07-29 20:30:00,
2013-07-29 15:35:00,64.5,60.2,29.90,East,89,1.0,1.0,86,0.00,,,2.05,Wunderground v.1.15,2013-07-29 20:35:00,
2013-07-29 15:40:00,64.5,60.2,29.90,ESE,110,2.0,6.0,86,0.08,,,2.06,Wunderground v.1.15,2013-07-29 20:40:00,
2013-07-29 15:50:00,64.5,60.2,29.89,East,82,3.0,3.0,86,0.05,,,2.06,Wunderground v.1.15,2013-07-29 20:50:00,
2013-07-29 16:00:00,64.5,60.2,29.88,East,86,1.0,1.0,86,0.04,,,2.07,Wunderground v.1.15,2013-07-29 21:00:00,
2013-07-29 16:10:00,64.5,60.2,29.88,East,83,2.0,2.0,86,0.00,,,2.07,Wunderground v.1.15,2013-07-29 21:10:00,
2013-07-29 16:20:00,64.8,60.5,29.88,ESE,117,2.0,6.0,86,0.00,,,2.07,Wunderground v.1.15,2013-07-29 21:20:00,
2013-07-29 16:30:00,64.8,60.8,29.88,East,100,4.0,7.0,87,0.00,,,2.08,Wunderground v.1.15,2013-07-29 21:30:00,
2013-07-29 16:35:00,64.8,60.8,29.88,East,95,3.0,7.0,87,0.00,,,2.08,Wunderground v.1.15,2013-07-29 21:35:00,
2013-07-29 16:50:00,65.3,61.7,29.87,East,99,3.0,3.0,88,0.00,,,2.08,Wunderground v.1.15,2013-07-29 21:50:00,
2013-07-29 17:00:00,65.3,61.7,29.87,East,89,4.0,4.0,88,0.00,,,2.08,Wunderground v.1.15,2013-07-29 22:00:00,
2013-07-29 17:05:00,65.5,61.9,29.87,ESE,121,4.0,4.0,88,0.00,,,2.08,Wunderground v.1.15,2013-07-29 22:05:00,
2013-07-29 17:15:00,66.0,62.3,29.87,East,92,3.0,4.0,88,0.00,,,2.08,Wunderground v.1.15,2013-07-29 22:15:00,
2013-07-29 17:20:00,66.0,62.3,29.87,East,99,4.0,6.0,88,0.00,,,2.08,Wunderground v.1.15,2013-07-29 22:20:00,
2013-07-29 17:30:00,66.1,62.4,29.87,ESE,106,4.0,4.0,88,0.00,,,2.08,Wunderground v.1.15,2013-07-29 22:30:00,
2013-07-29 17:40:00,66.1,62.4,29.87,ESE,109,3.0,6.0,88,0.00,,,2.08,Wunderground v.1.15,2013-07-29 22:40:00,
2013-07-29 17:45:00,66.1,62.4,29.87,East,95,4.0,6.0,88,0.00,,,2.09,Wunderground v.1.15,2013-07-29 22:45:00,
2013-07-29 17:55:00,66.1,62.4,29.87,ESE,117,4.0,5.0,88,0.00,,,2.09,Wunderground v.1.15,2013-07-29 22:55:00,
2013-07-29 18:05:00,66.1,62.8,29.85,East,89,5.0,5.0,89,0.00,,,2.09,Wunderground v.1.15,2013-07-29 23:05:00,
2013-07-29 18:15:00,66.3,63.0,29.85,ESE,121,4.0,4.0,89,0.00,,,2.09,Wunderground v.1.15,2013-07-29 23:15:00,
2013-07-29 18:25:00,66.4,63.1,29.85,ESE,109,4.0,4.0,89,0.00,,,2.09,Wunderground v.1.15,2013-07-29 23:25:00,
2013-07-29 18:35:00,66.4,63.1,29.85,ENE,75,4.0,9.0,89,0.00,,,2.09,Wunderground v.1.15,2013-07-29 23:35:00,
2013-07-29 18:45:00,66.4,63.1,29.85,East,90,3.0,4.0,89,0.00,,,2.09,Wunderground v.1.15,2013-07-29 23:45:00,
2013-07-29 18:50:00,66.4,63.1,29.85,ESE,104,4.0,4.0,89,0.00,,,2.09,Wunderground v.1.15,2013-07-29 23:50:00,
2013-07-29 19:00:00,66.6,63.3,29.85,East,86,4.0,4.0,89,0.00,,,2.09,Wunderground v.1.15,2013-07-30 00:00:00,
2013-07-29 19:10:00,66.6,63.3,29.85,ESE,102,4.0,4.0,89,0.00,,,2.09,Wunderground v.1.15,2013-07-30 00:10:00,
2013-07-29 19:20:00,66.8,63.5,29.85,ESE,117,4.0,7.0,89,0.00,,,2.09,Wunderground v.1.15,2013-07-30 00:20:00,
2013-07-29 19:30:00,66.8,63.5,29.85,ESE,107,4.0,4.0,89,0.00,,,2.09,Wunderground v.1.15,2013-07-30 00:30:00,
2013-07-29 19:40:00,66.8,63.5,29.85,East,88,4.0,6.0,89,0.00,,,2.09,Wunderground v.1.15,2013-07-30 00:40:00,
2013-07-29 19:50:00,66.8,63.5,29.85,East,90,4.0,4.0,89,0.00,,,2.09,Wunderground v.1.15,2013-07-30 00:50:00,
2013-07-29 20:00:00,66.8,63.5,29.86,East,90,4.0,4.0,89,0.00,,,2.09,Wunderground v.1.15,2013-07-30 01:00:00,
2013-07-29 20:05:00,66.8,63.5,29.86,East,93,4.0,4.0,89,0.00,,,2.09,Wunderground v.1.15,2013-07-30 01:05:00,
2013-07-29 20:20:00,66.8,63.5,29.86,ESE,106,3.0,4.0,89,0.00,,,2.09,Wunderground v.1.15,2013-07-30 01:20:00,
2013-07-29 20:30:00,66.8,63.5,29.86,East,97,3.0,3.0,89,0.00,,,2.09,Wunderground v.1.15,2013-07-30 01:30:00,
2013-07-29 20:35:00,66.8,63.5,29.86,ESE,116,3.0,8.0,89,0.00,,,2.09,Wunderground v.1.15,2013-07-30 01:35:00,
2013-07-29 20:45:00,66.8,63.5,29.86,ESE,120,4.0,4.0,89,0.00,,,2.09,Wunderground v.1.15,2013-07-30 01:45:00,
2013-07-29 20:50:00,66.8,63.5,29.86,East,96,3.0,3.0,89,0.00,,,2.09,Wunderground v.1.15,2013-07-30 01:50:00,
2013-07-29 21:00:00,66.8,63.5,29.86,East,92,3.0,3.0,89,0.00,,,2.09,Wunderground v.1.15,2013-07-30 02:00:00,
2013-07-29 21:10:00,66.8,63.5,29.86,East,86,2.0,2.0,89,0.00,,,2.09,Wunderground v.1.15,2013-07-30 02:10:00,
2013-07-29 21:20:00,66.8,63.5,29.86,East,96,2.0,2.0,89,0.00,,,2.09,Wunderground v.1.15,2013-07-30 02:20:00,
2013-07-29 21:35:00,66.8,63.5,29.86,East,100,2.0,2.0,89,0.00,,,2.09,Wunderground v.1.15,2013-07-30 02:35:00,
2013-07-29 21:45:00,66.8,63.5,29.87,East,83,3.0,4.0,89,0.00,,,2.09,Wunderground v.1.15,2013-07-30 02:45:00,
2013-07-29 21:55:00,66.9,63.6,29.87,East,89,3.0,4.0,89,0.00,,,2.09,Wunderground v.1.15,2013-07-30 02:55:00,
2013-07-29 22:05:00,66.9,63.6,29.87,East,89,1.0,2.0,89,0.00,,,2.09,Wunderground v.1.15,2013-07-30 03:05:00,
2013-07-29 22:10:00,66.9,63.6,29.87,ENE,58,1.0,1.0,89,0.00,,,2.09,Wunderground v.1.15,2013-07-30 03:10:00,
2013-07-29 22:20:00,66.9,63.6,29.87,East,92,1.0,2.0,89,0.00,,,2.09,Wunderground v.1.15,2013-07-30 03:20:00,
2013-07-29 22:40:00,66.9,63.6,29.88,East,83,1.0,1.0,89,0.00,,,2.09,Wunderground v.1.15,2013-07-30 03:40:00,
2013-07-29 22:50:00,66.9,63.6,29.87,East,95,2.0,2.0,89,0.00,,,2.09,Wunderground v.1.15,2013-07-30 03:50:00,
2013-07-29 22:55:00,67.1,63.7,29.87,East,93,1.0,2.0,89,0.00,,,2.09,Wunderground v.1.15,2013-07-30 03:55:00,
2013-07-29 23:05:00,67.1,63.7,29.87,East,86,2.0,2.0,89,0.00,,,2.09,Wunderground v.1.15,2013-07-30 04:05:00,
2013-07-29 23:10:00,67.1,63.7,29.87,ESE,109,2.0,2.0,89,0.00,,,2.09,Wunderground v.1.15,2013-07-30 04:10:00,
2013-07-29 23:15:00,67.1,63.7,29.87,ESE,113,2.0,2.0,89,0.00,,,2.09,Wunderground v.1.15,2013-07-30 04:15:00,
2013-07-29 23:20:00,67.1,63.7,29.87,East,93,1.0,2.0,89,0.00,,,2.09,Wunderground v.1.15,2013-07-30 04:20:00,
2013-07-29 23:25:00,67.1,63.7,29.87,East,92,1.0,2.0,89,0.00,,,2.09,Wunderground v.1.15,2013-07-30 04:25:00,
2013-07-29 23:30:00,67.3,63.9,29.87,East,86,1.0,4.0,89,0.00,,,2.09,Wunderground v.1.15,2013-07-30 04:30:00,
2013-07-29 23:40:00,67.3,63.9,29.87,East,89,1.0,2.0,89,0.00,,,2.09,Wunderground v.1.15,2013-07-30 04:40:00,
2013-07-29 23:45:00,67.3,63.9,29.87,East,90,1.0,2.0,89,0.00,,,2.09,Wunderground v.1.15,2013-07-30 04:45:00,
2013-07-29 23:50:00,67.3,63.9,29.87,East,83,1.0,1.0,89,0.00,,,2.09,Wunderground v.1.15,2013-07-30 04:50:00,
2013-07-29 23:55:00,67.3,63.9,29.87,East,79,1.0,1.0,89,0.00,,,2.09,Wunderground v.1.15,2013-07-30 04:55:00,